This is the latest recevied weather packets stored in our database for station/object KF0ZH. If no packets are shown the sender has not sent any weather packets the latest 10 day(s).
| Time | Temp. | Humidity | Pressure | Rain* | Wind** | Luminosity | Snow |
|---|---|---|---|---|---|---|---|
| 1778216519 | 6.67° C | 69% | 1007.7 hPa | 0 mm | 0 m/s | - | - |
| 1778215926 | 6.67° C | 68% | 1007.9 hPa | 0 mm | 0 m/s | - | - |
| 1778215620 | 6.67° C | 68% | 1007.9 hPa | 0 mm | 0 m/s | - | - |
| 1778215319 | 6.67° C | 67% | 1007.9 hPa | 0 mm | 0 m/s | - | - |
| 1778215019 | 7.22° C | 67% | 1008 hPa | 0 mm | 0 m/s | - | - |
| 1778214425 | 7.22° C | 68% | 1008 hPa | 0 mm | 0 m/s | - | - |
| 1778214121 | 7.22° C | 66% | 1008 hPa | 0 mm | 0 m/s | - | - |
| 1778206919 | 11.11° C | 53% | 1008 hPa | 0 mm | 0 m/s | - | - |
| 1778206619 | 11.11° C | 51% | 1007.9 hPa | 0 mm | 0 m/s | - | - |
| 1778206318 | 11.67° C | 51% | 1007.7 hPa | 0 mm | 0 m/s | - | - |
| 1778206019 | 11.67° C | 50% | 1007.6 hPa | 0 mm | 0 m/s | - | - |
| 1778205718 | 11.67° C | 50% | 1007.5 hPa | 0 mm | 0 m/s | - | - |
| 1778203919 | 12.78° C | 44% | 1007.2 hPa | 0 mm | 0 m/s | - | - |
| 1778203625 | 12.78° C | 43% | 1007.2 hPa | 0 mm | 0 m/s | - | - |
| 1778203320 | 13.33° C | 43% | 1007.2 hPa | 0 mm | 0 m/s | - | - |
| 1778201523 | 13.89° C | 40% | 1007.5 hPa | 0 mm | 0 m/s | - | - |
| 1778198218 | 15° C | 37% | 1007.6 hPa | 0 mm | 0 m/s | - | - |
| 1778197918 | 15° C | 38% | 1007.6 hPa | 0 mm | 0 m/s | - | - |
| 1778197318 | 14.44° C | 37% | 1007.7 hPa | 0 mm | 0 m/s | - | - |
| 1778193718 | 15° C | 37% | 1008.3 hPa | 0 mm | 3.13 m/s, 244° | - | - |
| 1778192818 | 13.89° C | 37% | 1008.4 hPa | 0 mm | 3.13 m/s, 316° | - | - |
| 1778192218 | 14.44° C | 36% | 1008.3 hPa | 0 mm | 3.13 m/s, 307° | - | - |
| 1778191618 | 13.89° C | 37% | 1008.3 hPa | 0 mm | 2.68 m/s, 264° | - | - |
| 1778191318 | 13.89° C | 37% | 1008.4 hPa | 0 mm | 2.68 m/s, 278° | - | - |
| 1778191018 | 13.89° C | 37% | 1008.4 hPa | 0 mm | 3.13 m/s, 300° | - | - |
* Rain latest hour (hover to see other rain measurements)
** Current wind speed in m/s (hover to see current wind gust speed)